createdAt,value
2023-03-29T00:00:32.965Z,531.4615
2023-03-29T00:01:36.209Z,532.2308
2023-03-29T00:02:35.210Z,530.9231
2023-03-29T00:03:36.381Z,528.9231
2023-03-29T00:04:37.455Z,527.6154
2023-03-29T00:05:38.487Z,526.9231
2023-03-29T00:06:39.603Z,527.6923
2023-03-29T00:07:40.698Z,526.9231
2023-03-29T00:08:41.785Z,526.0000
2023-03-29T00:09:43.337Z,526.9231
2023-03-29T00:10:43.973Z,526.7692
2023-03-29T00:11:45.103Z,525.8461
2023-03-29T00:12:46.190Z,527.1539
2023-03-29T00:13:47.303Z,527.3846
2023-03-29T00:14:48.390Z,527.0000
2023-03-29T00:15:49.496Z,525.2308
2023-03-29T00:16:50.615Z,525.0000
2023-03-29T00:17:51.731Z,525.6923
2023-03-29T00:18:52.800Z,529.4615
2023-03-29T00:19:53.936Z,526.2308
2023-03-29T00:20:55.008Z,525.4615
2023-03-29T00:21:56.825Z,524.6154
2023-03-29T00:22:57.205Z,525.0769
2023-03-29T00:23:58.325Z,524.7692
2023-03-29T00:24:59.436Z,523.5385
2023-03-29T00:26:00.521Z,523.7692
2023-03-29T00:27:01.612Z,522.0000
2023-03-29T00:28:02.757Z,520.7692
2023-03-29T00:29:03.811Z,518.6923
2023-03-29T00:30:04.930Z,518.4615
2023-03-29T00:31:06.033Z,516.6923
2023-03-29T00:32:07.125Z,515.0000
2023-03-29T00:33:08.236Z,516.7692
2023-03-29T00:34:09.315Z,520.4615
2023-03-29T00:35:10.433Z,522.0769
2023-03-29T00:36:11.523Z,520.7692
2023-03-29T00:37:12.621Z,516.7692
2023-03-29T00:38:13.734Z,514.3077
2023-03-29T00:39:14.866Z,514.7692
2023-03-29T00:40:16.388Z,513.6923
2023-03-29T00:41:17.019Z,515.1539
2023-03-29T00:42:18.119Z,515.1539
2023-03-29T00:43:19.216Z,514.5385
2023-03-29T00:44:20.334Z,516.7692
2023-03-29T00:45:21.443Z,515.0000
2023-03-29T00:46:22.588Z,513.6154
2023-03-29T00:47:23.728Z,518.3077
2023-03-29T00:48:24.752Z,519.0769
2023-03-29T00:49:25.831Z,516.6923
2023-03-29T00:50:26.962Z,516.4615
2023-03-29T00:51:28.049Z,517.3077
2023-03-29T00:52:29.156Z,510.9231
2023-03-29T00:53:30.275Z,513.5385
2023-03-29T00:54:31.357Z,515.0000
2023-03-29T00:55:32.464Z,515.5385
2023-03-29T00:56:33.577Z,516.6154
2023-03-29T00:57:34.654Z,517.3077
2023-03-29T00:58:35.771Z,517.3077
2023-03-29T00:59:36.867Z,512.8461
2023-03-29T01:00:38.000Z,512.2308
2023-03-29T01:01:39.104Z,512.6154
2023-03-29T01:02:40.262Z,512.8461
2023-03-29T01:03:41.393Z,513.6923
2023-03-29T01:04:42.401Z,513.7692
2023-03-29T01:05:43.498Z,510.9231
2023-03-29T01:06:44.655Z,509.3846
2023-03-29T01:07:45.699Z,508.4615
2023-03-29T01:08:46.795Z,508.6923
2023-03-29T01:09:47.897Z,510.1538
2023-03-29T01:10:49.020Z,511.5385
2023-03-29T01:11:50.093Z,511.0769
2023-03-29T01:12:51.215Z,511.1538
2023-03-29T01:13:52.303Z,511.3846
2023-03-29T01:14:53.419Z,507.4615
2023-03-29T01:15:54.515Z,507.5385
2023-03-29T01:16:55.787Z,507.6154
2023-03-29T01:17:56.745Z,507.4615
2023-03-29T01:18:57.815Z,509.4615
2023-03-29T01:19:58.924Z,510.3846
2023-03-29T01:21:00.193Z,511.2308
2023-03-29T01:22:01.111Z,509.9231
2023-03-29T01:23:02.241Z,509.0769
2023-03-29T01:24:03.322Z,509.1538
2023-03-29T01:25:04.431Z,509.5385
2023-03-29T01:26:05.542Z,507.8462
2023-03-29T01:27:06.635Z,509.0769
2023-03-29T01:28:07.717Z,509.4615
2023-03-29T01:29:08.833Z,510.3077
2023-03-29T01:30:09.921Z,509.3077
2023-03-29T01:31:11.065Z,507.0769
2023-03-29T01:32:12.150Z,505.8462
2023-03-29T01:33:13.265Z,504.2308
2023-03-29T01:34:14.331Z,505.2308
2023-03-29T01:35:15.448Z,505.4615
2023-03-29T01:36:16.884Z,507.4615
2023-03-29T01:37:17.665Z,508.5385
2023-03-29T01:38:18.764Z,506.6923
2023-03-29T01:39:19.861Z,505.9231
2023-03-29T01:40:20.961Z,507.7692
2023-03-29T01:41:23.265Z,506.6154
2023-03-29T01:42:23.156Z,508.3077
2023-03-29T01:43:24.268Z,507.1538
2023-03-29T01:44:25.361Z,505.7692
2023-03-29T01:45:26.486Z,504.9231
2023-03-29T01:46:27.882Z,505.7692
2023-03-29T01:47:28.686Z,505.3077
2023-03-29T01:48:29.775Z,506.4615
2023-03-29T01:49:30.911Z,505.8462
2023-03-29T01:50:31.980Z,501.6154
2023-03-29T01:51:33.098Z,501.6923
2023-03-29T01:52:34.169Z,501.8462
2023-03-29T01:53:35.288Z,501.6923
2023-03-29T01:54:36.380Z,505.4615
2023-03-29T01:55:37.489Z,507.3077
2023-03-29T01:56:38.636Z,505.4615
2023-03-29T01:57:39.684Z,506.3077
2023-03-29T01:58:40.790Z,504.9231
2023-03-29T01:59:41.894Z,503.4615
2023-03-29T02:00:42.985Z,501.6923
2023-03-29T02:01:44.184Z,502.0769
2023-03-29T02:02:45.285Z,500.2308
2023-03-29T02:03:46.350Z,503.0000
2023-03-29T02:04:47.394Z,501.8462
2023-03-29T02:05:48.527Z,502.5385
2023-03-29T02:06:49.630Z,502.6923
2023-03-29T02:07:50.722Z,503.8462
2023-03-29T02:08:51.813Z,503.6923
2023-03-29T02:09:52.933Z,503.0769
2023-03-29T02:10:54.029Z,504.7692
2023-03-29T02:11:55.156Z,503.4615
2023-03-29T02:12:56.238Z,503.0000
2023-03-29T02:13:57.359Z,501.6154
2023-03-29T02:14:58.446Z,503.2308
2023-03-29T02:15:59.639Z,505.7692
2023-03-29T02:17:00.882Z,504.3077
2023-03-29T02:18:01.816Z,502.9231
2023-03-29T02:19:02.878Z,502.8462
2023-03-29T02:20:04.002Z,502.6923
2023-03-29T02:21:05.076Z,503.9231
2023-03-29T02:22:06.226Z,503.2308
2023-03-29T02:23:07.309Z,505.0769
2023-03-29T02:24:08.417Z,504.6923
2023-03-29T02:25:09.515Z,504.1538
2023-03-29T02:26:10.636Z,502.2308
2023-03-29T02:27:11.751Z,502.3077
2023-03-29T02:28:12.850Z,504.5385
2023-03-29T02:29:13.944Z,505.0000
2023-03-29T02:30:15.051Z,505.6154
2023-03-29T02:31:16.203Z,505.6923
2023-03-29T02:32:17.274Z,505.1538
2023-03-29T02:33:18.402Z,502.7692
2023-03-29T02:34:19.478Z,499.0000
2023-03-29T02:35:20.563Z,497.3846
2023-03-29T02:36:21.678Z,501.0769
2023-03-29T02:37:22.792Z,499.7692
2023-03-29T02:38:23.892Z,501.1538
2023-03-29T02:39:24.984Z,502.1538
2023-03-29T02:40:26.135Z,502.4615
2023-03-29T02:41:27.199Z,501.3846
2023-03-29T02:42:28.374Z,500.6923
2023-03-29T02:43:29.408Z,501.1538
2023-03-29T02:44:30.522Z,500.7692
2023-03-29T02:45:31.614Z,500.0769
2023-03-29T02:46:32.778Z,498.4615
2023-03-29T02:47:33.910Z,496.9231
2023-03-29T02:48:34.930Z,499.0000
2023-03-29T02:49:36.027Z,500.3846
2023-03-29T02:50:37.136Z,499.0769
2023-03-29T02:51:38.244Z,501.7692
2023-03-29T02:52:39.380Z,500.2308
2023-03-29T02:53:40.436Z,497.5385
2023-03-29T02:54:41.558Z,497.4615
2023-03-29T02:55:42.656Z,497.1538
2023-03-29T02:56:43.796Z,497.1538
2023-03-29T02:57:44.887Z,496.1538
2023-03-29T02:58:45.966Z,497.6154
2023-03-29T02:59:47.086Z,500.3846
2023-03-29T03:00:48.177Z,497.9231
2023-03-29T03:01:49.316Z,497.7692
2023-03-29T03:02:50.440Z,499.0769
2023-03-29T03:03:51.581Z,501.0769
2023-03-29T03:04:52.628Z,500.0769
2023-03-29T03:05:53.729Z,498.1538
2023-03-29T03:06:54.813Z,495.8462
2023-03-29T03:07:55.937Z,496.7692
2023-03-29T03:08:57.018Z,496.3846
2023-03-29T03:09:58.137Z,498.6154
2023-03-29T03:10:59.325Z,497.3846
2023-03-29T03:12:00.354Z,498.8462
2023-03-29T03:13:01.455Z,498.8462
2023-03-29T03:14:02.561Z,498.0769
2023-03-29T03:15:03.660Z,498.5385
2023-03-29T03:16:04.819Z,496.5385
2023-03-29T03:17:05.855Z,495.5385
2023-03-29T03:18:07.466Z,499.7692
2023-03-29T03:19:08.066Z,499.1538
2023-03-29T03:20:09.178Z,498.8462
2023-03-29T03:21:10.270Z,498.6923
2023-03-29T03:22:11.389Z,497.9231
2023-03-29T03:23:12.478Z,496.6923
2023-03-29T03:24:13.573Z,499.3846
2023-03-29T03:25:14.673Z,499.0769
2023-03-29T03:26:15.789Z,495.8462
2023-03-29T03:27:16.867Z,496.7692
2023-03-29T03:28:18.419Z,496.6154
2023-03-29T03:29:19.079Z,496.3846
2023-03-29T03:30:20.249Z,498.2308
2023-03-29T03:31:21.442Z,500.3846
2023-03-29T03:32:22.458Z,497.9231
2023-03-29T03:33:23.559Z,498.6923
2023-03-29T03:34:24.648Z,498.6154
2023-03-29T03:35:25.762Z,499.9231
2023-03-29T03:36:26.854Z,497.3846
2023-03-29T03:37:27.973Z,496.4615
2023-03-29T03:38:29.063Z,500.5385
2023-03-29T03:39:30.137Z,500.2308
2023-03-29T03:40:31.238Z,499.9231
2023-03-29T03:41:32.329Z,495.7692
2023-03-29T03:42:33.441Z,494.9231
2023-03-29T03:43:34.604Z,497.9231
2023-03-29T03:44:35.648Z,497.3846
2023-03-29T03:45:36.722Z,499.9231
2023-03-29T03:46:37.844Z,501.4615
2023-03-29T03:47:38.967Z,502.8462
2023-03-29T03:48:40.053Z,501.0769
2023-03-29T03:49:41.114Z,500.4615
2023-03-29T03:50:42.237Z,500.3846
2023-03-29T03:51:43.335Z,499.3846
2023-03-29T03:52:44.434Z,500.7692
2023-03-29T03:53:45.545Z,498.0000
2023-03-29T03:54:46.644Z,500.6154
2023-03-29T03:55:47.737Z,500.9231
2023-03-29T03:56:48.884Z,500.5385
2023-03-29T03:57:49.944Z,501.8462
2023-03-29T03:58:51.076Z,499.3077
2023-03-29T03:59:52.150Z,495.3077
2023-03-29T04:00:53.309Z,496.3077
2023-03-29T04:01:54.349Z,498.3077
2023-03-29T04:02:55.555Z,498.1538
2023-03-29T04:03:56.649Z,496.6923
2023-03-29T04:04:57.684Z,495.5385
2023-03-29T04:05:58.774Z,497.4615
2023-03-29T04:06:59.873Z,499.7692
2023-03-29T04:08:00.971Z,502.3077
2023-03-29T04:09:02.119Z,501.3846
2023-03-29T04:10:03.202Z,503.0000
2023-03-29T04:11:04.464Z,502.8462
2023-03-29T04:12:05.371Z,503.6923
2023-03-29T04:13:06.515Z,503.3846
2023-03-29T04:14:07.600Z,499.6923
2023-03-29T04:15:08.717Z,498.0769
2023-03-29T04:16:09.846Z,502.0769
2023-03-29T04:17:10.897Z,502.6154
2023-03-29T04:18:12.034Z,501.5385
2023-03-29T04:19:13.110Z,501.6154
2023-03-29T04:20:14.163Z,502.0000
2023-03-29T04:21:15.298Z,501.6923
2023-03-29T04:22:16.365Z,501.7692
2023-03-29T04:23:17.480Z,500.6154
2023-03-29T04:24:18.582Z,501.3846
2023-03-29T04:25:19.680Z,499.7692
2023-03-29T04:26:20.766Z,500.4615
2023-03-29T04:27:21.884Z,498.2308
2023-03-29T04:28:22.969Z,496.3846
2023-03-29T04:29:24.116Z,497.0769
2023-03-29T04:30:25.192Z,498.7692
2023-03-29T04:31:26.300Z,499.0000
2023-03-29T04:32:27.382Z,498.3846
2023-03-29T04:33:28.473Z,500.8462
2023-03-29T04:34:29.588Z,502.6923
2023-03-29T04:35:30.703Z,502.3846
2023-03-29T04:36:31.765Z,500.4615
2023-03-29T04:37:32.888Z,499.2308
2023-03-29T04:38:33.967Z,500.7692
2023-03-29T04:39:35.136Z,499.2308
2023-03-29T04:40:36.168Z,501.6154
2023-03-29T04:41:37.265Z,500.8462
2023-03-29T04:42:38.378Z,498.6923
2023-03-29T04:43:40.352Z,497.8462
2023-03-29T04:44:40.673Z,498.7692
2023-03-29T04:45:41.709Z,499.0769
2023-03-29T04:46:42.833Z,500.5385
2023-03-29T04:47:43.929Z,499.9231
2023-03-29T04:48:45.001Z,500.0769
2023-03-29T04:49:46.129Z,501.1538
2023-03-29T04:50:47.200Z,503.1538
2023-03-29T04:51:48.309Z,501.2308
2023-03-29T04:52:49.393Z,499.9231
2023-03-29T04:53:50.508Z,497.2308
2023-03-29T04:54:51.619Z,498.3846
2023-03-29T04:55:52.709Z,498.1538
2023-03-29T04:56:53.840Z,502.6154
2023-03-29T04:57:54.906Z,502.7692
2023-03-29T04:58:55.996Z,501.3846
2023-03-29T04:59:57.481Z,499.2308
2023-03-29T05:00:58.199Z,498.0000
2023-03-29T05:01:59.334Z,498.6154
2023-03-29T05:03:00.611Z,498.3846
2023-03-29T05:04:01.568Z,497.6923
2023-03-29T05:05:02.654Z,495.6154
2023-03-29T05:06:03.910Z,494.0769
2023-03-29T05:07:04.979Z,495.4615
2023-03-29T05:08:05.901Z,495.9231
2023-03-29T05:09:06.988Z,496.7692
2023-03-29T05:10:08.119Z,499.3846
2023-03-29T05:11:09.196Z,499.4615
2023-03-29T05:12:10.307Z,498.1538
2023-03-29T05:13:11.396Z,496.8462
2023-03-29T05:14:12.504Z,496.2308
2023-03-29T05:15:13.618Z,497.3846
2023-03-29T05:16:14.770Z,497.8462
2023-03-29T05:17:15.796Z,495.9231
2023-03-29T05:18:16.908Z,493.6923
2023-03-29T05:19:18.003Z,494.6923
2023-03-29T05:20:19.145Z,496.8462
2023-03-29T05:21:20.201Z,497.9231
2023-03-29T05:22:21.313Z,498.1538
2023-03-29T05:23:22.396Z,499.1538
2023-03-29T05:24:23.524Z,497.6923
2023-03-29T05:25:24.623Z,499.0000
2023-03-29T05:26:25.741Z,499.6154
2023-03-29T05:27:26.789Z,499.4615
2023-03-29T05:28:27.914Z,497.2308
2023-03-29T05:29:29.014Z,496.3077
2023-03-29T05:30:30.482Z,497.2308
2023-03-29T05:31:31.252Z,498.3077
2023-03-29T05:32:32.422Z,499.3846
2023-03-29T05:33:33.404Z,496.8462
2023-03-29T05:34:34.551Z,495.6154
2023-03-29T05:35:35.649Z,495.3077
2023-03-29T05:36:36.731Z,497.4615
2023-03-29T05:37:37.830Z,498.6154
2023-03-29T05:38:38.938Z,496.6923
2023-03-29T05:39:40.022Z,496.0769
2023-03-29T05:40:41.176Z,495.1538
2023-03-29T05:41:42.227Z,496.0769
2023-03-29T05:42:43.356Z,497.6154
2023-03-29T05:43:44.421Z,499.6154
2023-03-29T05:44:45.538Z,499.3846
2023-03-29T05:45:46.741Z,498.0769
2023-03-29T05:46:47.744Z,496.6923
2023-03-29T05:47:48.873Z,497.9231
2023-03-29T05:48:49.958Z,499.7692
2023-03-29T05:49:51.056Z,500.6154
2023-03-29T05:50:52.146Z,499.2308
2023-03-29T05:51:53.226Z,498.2308
2023-03-29T05:52:54.356Z,494.5385
2023-03-29T05:53:55.452Z,491.2308
2023-03-29T05:54:56.552Z,490.1538
2023-03-29T05:55:57.647Z,492.3077
2023-03-29T05:56:58.778Z,493.3846
2023-03-29T05:57:59.850Z,492.3077
2023-03-29T05:59:00.954Z,492.4615
2023-03-29T06:00:02.085Z,493.1538
2023-03-29T06:01:03.345Z,496.2308
2023-03-29T06:02:04.243Z,494.0000
2023-03-29T06:03:17.534Z,493.3077
2023-03-29T06:04:07.495Z,495.0769
2023-03-29T06:05:07.606Z,493.6923
2023-03-29T06:06:08.662Z,493.0769
2023-03-29T06:07:09.759Z,495.1538
2023-03-29T06:08:10.838Z,496.9231
2023-03-29T06:09:11.972Z,498.0000
2023-03-29T06:10:13.068Z,495.6923
2023-03-29T06:11:14.201Z,494.7692
2023-03-29T06:12:15.270Z,537.0000
2023-03-29T06:13:16.397Z,647.7692
2023-03-29T06:14:17.477Z,608.2308
2023-03-29T06:15:18.595Z,598.3846
2023-03-29T06:16:19.979Z,592.0769
2023-03-29T06:17:20.851Z,600.1539
2023-03-29T06:18:21.895Z,621.2308
2023-03-29T06:19:23.005Z,636.5385
2023-03-29T06:20:24.096Z,665.3077
2023-03-29T06:21:25.219Z,719.9231
2023-03-29T06:22:26.285Z,720.4615
2023-03-29T06:23:27.405Z,711.9231
2023-03-29T06:24:28.508Z,711.4615
2023-03-29T06:25:29.634Z,710.6923
2023-03-29T06:26:30.725Z,713.0769
2023-03-29T06:27:31.851Z,717.1539
2023-03-29T06:28:32.961Z,720.2308
2023-03-29T06:29:34.047Z,723.0000
2023-03-29T06:30:35.136Z,720.1539
2023-03-29T06:31:36.374Z,709.7692
2023-03-29T06:32:37.359Z,681.3846
2023-03-29T06:33:38.454Z,663.3077
2023-03-29T06:34:39.546Z,669.0000
2023-03-29T06:35:40.675Z,674.5385
2023-03-29T06:36:41.758Z,684.6154
2023-03-29T06:37:42.854Z,697.8461
2023-03-29T06:38:43.975Z,716.7692
2023-03-29T06:39:45.079Z,1066.1538
2023-03-29T06:40:46.162Z,1071.9231
2023-03-29T06:41:47.296Z,913.8461
2023-03-29T06:42:48.414Z,836.6154
2023-03-29T06:43:49.510Z,812.3846
2023-03-29T06:44:50.572Z,795.0000
2023-03-29T06:45:51.695Z,777.7692
2023-03-29T06:46:52.866Z,749.9231
2023-03-29T06:47:53.985Z,728.5385
2023-03-29T06:48:55.001Z,719.2308
2023-03-29T06:49:56.105Z,701.0769
2023-03-29T06:50:57.179Z,672.7692
2023-03-29T06:51:58.345Z,670.8461
2023-03-29T06:52:59.389Z,681.6154
2023-03-29T06:54:00.510Z,696.0000
2023-03-29T06:55:01.687Z,709.0000
2023-03-29T06:56:02.705Z,715.0000
2023-03-29T06:57:03.832Z,718.3077
2023-03-29T06:58:04.898Z,720.4615
2023-03-29T06:59:06.000Z,722.0769
2023-03-29T07:00:07.103Z,722.8461
2023-03-29T07:01:08.412Z,724.2308
2023-03-29T07:02:09.420Z,726.4615
2023-03-29T07:03:10.423Z,730.0769
2023-03-29T07:04:11.531Z,731.3846
2023-03-29T07:05:12.578Z,731.5385
2023-03-29T07:06:13.703Z,732.1539
2023-03-29T07:07:14.809Z,734.3846
2023-03-29T07:08:15.882Z,734.7692
2023-03-29T07:09:19.347Z,735.3077
2023-03-29T07:10:18.086Z,739.0000
2023-03-29T07:11:19.169Z,743.1539
2023-03-29T07:12:20.496Z,751.8461
2023-03-29T07:13:21.356Z,757.9231
2023-03-29T07:14:22.492Z,759.7692
2023-03-29T07:15:23.563Z,759.0000
2023-03-29T07:16:24.763Z,759.2308
2023-03-29T07:17:25.811Z,760.3846
2023-03-29T07:18:26.852Z,760.0769
2023-03-29T07:19:27.962Z,759.6923
2023-03-29T07:20:29.057Z,760.2308
2023-03-29T07:21:30.169Z,757.3846
2023-03-29T07:22:31.408Z,755.8461
2023-03-29T07:23:32.362Z,757.2308
2023-03-29T07:24:33.456Z,756.6923
2023-03-29T07:25:34.570Z,755.5385
2023-03-29T07:26:35.637Z,758.3846
2023-03-29T07:27:36.784Z,757.3846
2023-03-29T07:28:37.848Z,756.8461
2023-03-29T07:29:38.975Z,757.0769
2023-03-29T07:30:40.031Z,758.5385
2023-03-29T07:31:41.210Z,762.3846
2023-03-29T07:32:42.403Z,770.3846
2023-03-29T07:33:43.607Z,769.7692
2023-03-29T07:34:44.519Z,766.8461
2023-03-29T07:35:45.645Z,759.2308
2023-03-29T07:36:46.689Z,756.5385
2023-03-29T07:37:48.015Z,758.3846
2023-03-29T07:38:48.910Z,759.3846
2023-03-29T07:39:49.994Z,759.6154
2023-03-29T07:40:51.071Z,756.3846
2023-03-29T07:41:52.188Z,753.3077
2023-03-29T07:42:53.291Z,752.5385
2023-03-29T07:43:54.382Z,751.0769
2023-03-29T07:44:55.469Z,747.8461
2023-03-29T07:45:56.608Z,747.7692
2023-03-29T07:46:57.650Z,747.5385
2023-03-29T07:47:59.050Z,746.7692
2023-03-29T07:48:59.859Z,746.6154
2023-03-29T07:50:00.977Z,748.6154
2023-03-29T07:51:02.267Z,750.3077
2023-03-29T07:52:03.152Z,751.0769
2023-03-29T07:53:04.306Z,749.8461
2023-03-29T07:54:05.417Z,748.9231
2023-03-29T07:55:06.453Z,748.6923
2023-03-29T07:56:07.553Z,751.3846
2023-03-29T07:57:08.722Z,749.6923
2023-03-29T07:58:10.018Z,746.4615
2023-03-29T07:59:10.888Z,747.8461
2023-03-29T08:00:11.962Z,746.3077
2023-03-29T08:01:15.372Z,746.0000
2023-03-29T08:02:14.194Z,746.0769
2023-03-29T08:03:15.659Z,743.9231
2023-03-29T08:04:16.438Z,743.6923
2023-03-29T08:05:23.272Z,742.0000
2023-03-29T08:06:19.561Z,745.0000
2023-03-29T08:07:19.650Z,747.1539
2023-03-29T08:08:20.772Z,748.0000
2023-03-29T08:09:21.908Z,747.4615
2023-03-29T08:10:22.989Z,748.0769
2023-03-29T08:11:24.045Z,747.0769
2023-03-29T08:12:25.176Z,745.8461
2023-03-29T08:13:26.279Z,756.3846
2023-03-29T08:14:27.359Z,760.3077
2023-03-29T08:15:28.447Z,757.9231
2023-03-29T08:16:29.659Z,753.2308
2023-03-29T08:17:30.716Z,752.5385
2023-03-29T08:18:34.127Z,754.1539
2023-03-29T08:19:32.860Z,753.0000
2023-03-29T08:20:33.965Z,754.5385
2023-03-29T08:21:35.068Z,761.9231
2023-03-29T08:22:36.198Z,773.9231
2023-03-29T08:23:37.273Z,776.9231
2023-03-29T08:24:38.400Z,773.3846
2023-03-29T08:25:39.462Z,773.0000
2023-03-29T08:26:40.578Z,778.2308
2023-03-29T08:27:41.686Z,778.5385
2023-03-29T08:28:43.118Z,774.5385
2023-03-29T08:29:43.877Z,774.9231
2023-03-29T08:30:45.044Z,775.3846
2023-03-29T08:31:46.064Z,777.8461
2023-03-29T08:32:49.893Z,775.6154
2023-03-29T08:33:48.530Z,777.6154
2023-03-29T08:34:49.391Z,779.7692
2023-03-29T08:35:50.532Z,781.7692
2023-03-29T08:36:51.710Z,780.6154
2023-03-29T08:37:52.847Z,859.3846
2023-03-29T08:38:53.803Z,837.2308
2023-03-29T08:39:54.863Z,802.8461
2023-03-29T08:40:55.981Z,791.1539
2023-03-29T08:41:57.073Z,786.8461
2023-03-29T08:42:58.174Z,787.9231
2023-03-29T08:43:59.282Z,785.9231
2023-03-29T08:45:00.383Z,780.3077
2023-03-29T08:46:01.513Z,777.3846
2023-03-29T08:47:02.611Z,780.6154
2023-03-29T08:48:03.708Z,785.8461
2023-03-29T08:49:04.864Z,795.9231
2023-03-29T08:50:05.931Z,800.0769
2023-03-29T08:51:09.432Z,794.7692
2023-03-29T08:52:08.209Z,781.1539
2023-03-29T08:53:09.185Z,782.3846
2023-03-29T08:54:10.295Z,783.1539
2023-03-29T08:55:11.354Z,779.3846
2023-03-29T08:56:12.454Z,780.2308
2023-03-29T08:57:13.601Z,787.8461
2023-03-29T08:58:14.642Z,790.8461
2023-03-29T08:59:24.424Z,793.5385
2023-03-29T09:00:17.823Z,793.3846
2023-03-29T09:01:18.015Z,789.6154
2023-03-29T09:02:19.270Z,788.7692
2023-03-29T09:03:20.220Z,789.4615
2023-03-29T09:04:21.245Z,786.8461
2023-03-29T09:05:22.350Z,783.8461
2023-03-29T09:06:23.422Z,779.8461
2023-03-29T09:07:26.544Z,774.6154
2023-03-29T09:08:25.636Z,775.4615
2023-03-29T09:09:26.747Z,784.4615
2023-03-29T09:10:27.830Z,793.9231
2023-03-29T09:11:28.929Z,790.9231
2023-03-29T09:12:30.062Z,788.3077
2023-03-29T09:13:31.166Z,781.7692
2023-03-29T09:14:32.250Z,778.8461
2023-03-29T09:15:33.333Z,775.3846
2023-03-29T09:16:34.538Z,773.3077
2023-03-29T09:17:35.595Z,768.3077
2023-03-29T09:18:36.609Z,763.6923
2023-03-29T09:19:37.748Z,760.9231
2023-03-29T09:20:38.819Z,759.9231
2023-03-29T09:21:39.930Z,757.1539
2023-03-29T09:22:41.093Z,751.5385
2023-03-29T09:23:42.131Z,745.2308
2023-03-29T09:24:43.231Z,743.5385
2023-03-29T09:25:53.179Z,747.2308
2023-03-29T09:26:46.440Z,748.3846
2023-03-29T09:27:46.520Z,746.0769
2023-03-29T09:28:47.626Z,756.1539
2023-03-29T09:29:48.747Z,768.3077
2023-03-29T09:30:49.809Z,764.8461
2023-03-29T09:31:50.952Z,763.4615
2023-03-29T09:32:52.137Z,762.6154
2023-03-29T09:33:53.113Z,760.7692
2023-03-29T09:34:54.219Z,761.1539
2023-03-29T09:35:55.333Z,761.2308
2023-03-29T09:36:56.414Z,762.0769
2023-03-29T09:37:57.510Z,766.3077
2023-03-29T09:38:58.601Z,767.2308
2023-03-29T09:39:59.723Z,771.6154
2023-03-29T09:41:00.911Z,775.0769
2023-03-29T09:42:01.891Z,778.7692
2023-03-29T09:43:02.979Z,778.7692
2023-03-29T09:44:04.083Z,777.6154
2023-03-29T09:45:05.193Z,780.7692
2023-03-29T09:46:06.320Z,785.3846
2023-03-29T09:47:07.402Z,786.9231
2023-03-29T09:48:08.529Z,788.3077
2023-03-29T09:49:09.603Z,795.1539
2023-03-29T09:50:19.820Z,811.3077
2023-03-29T09:51:12.775Z,814.5385
2023-03-29T09:52:12.940Z,814.2308
2023-03-29T09:53:13.980Z,812.6154
2023-03-29T09:54:15.093Z,812.6923
2023-03-29T09:55:16.234Z,809.4615
2023-03-29T09:56:17.292Z,812.6154
2023-03-29T09:57:18.437Z,814.0000
2023-03-29T09:58:19.524Z,820.6154
2023-03-29T09:59:20.570Z,825.5385
2023-03-29T10:00:21.713Z,827.1539
2023-03-29T10:01:22.862Z,829.4615
2023-03-29T10:02:23.942Z,830.3846
2023-03-29T10:03:24.987Z,828.8461
2023-03-29T10:04:26.200Z,828.2308
2023-03-29T10:05:27.571Z,830.8461
2023-03-29T10:06:28.300Z,831.5385
2023-03-29T10:07:29.391Z,827.3846
2023-03-29T10:08:30.511Z,819.5385
2023-03-29T10:09:31.581Z,819.3077
2023-03-29T10:10:32.722Z,818.1539
2023-03-29T10:11:33.801Z,818.9231
2023-03-29T10:12:34.880Z,820.6154
2023-03-29T10:13:35.975Z,819.3846
2023-03-29T10:14:37.149Z,819.2308
2023-03-29T10:15:38.180Z,820.8461
2023-03-29T10:16:39.303Z,817.9231
2023-03-29T10:17:40.435Z,761.4615
2023-03-29T10:18:41.534Z,701.9231
2023-03-29T10:19:42.551Z,669.7692
2023-03-29T10:20:43.682Z,643.6923
2023-03-29T10:21:44.757Z,628.1539
2023-03-29T10:22:45.870Z,622.3846
2023-03-29T10:23:47.087Z,612.2308
2023-03-29T10:24:48.048Z,605.9231
2023-03-29T10:25:49.165Z,610.9231
2023-03-29T10:26:50.246Z,617.7692
2023-03-29T10:27:51.336Z,622.6923
2023-03-29T10:28:52.783Z,623.3846
2023-03-29T10:29:53.523Z,627.8461
2023-03-29T10:30:54.651Z,675.4615
2023-03-29T10:31:55.781Z,657.3846
2023-03-29T10:32:56.931Z,642.3077
2023-03-29T10:33:57.908Z,637.3846
2023-03-29T10:34:59.021Z,633.7692
2023-03-29T10:36:00.617Z,630.6923
2023-03-29T10:37:01.407Z,626.6154
2023-03-29T10:38:02.276Z,623.1539
2023-03-29T10:39:05.771Z,622.2308
2023-03-29T10:40:04.493Z,620.2308
2023-03-29T10:41:05.602Z,619.5385
2023-03-29T10:42:06.667Z,618.3846
2023-03-29T10:43:07.778Z,616.0000
2023-03-29T10:44:08.869Z,612.4615
2023-03-29T10:45:09.974Z,607.6923
2023-03-29T10:46:11.159Z,600.9231
2023-03-29T10:47:12.175Z,596.9231
2023-03-29T10:48:13.268Z,595.4615
2023-03-29T10:49:14.375Z,597.0000
2023-03-29T10:50:15.484Z,598.2308
2023-03-29T10:51:16.644Z,598.0000
2023-03-29T10:52:17.638Z,599.5385
2023-03-29T10:53:18.744Z,597.3077
2023-03-29T10:54:19.817Z,593.2308
2023-03-29T10:55:20.924Z,588.5385
2023-03-29T10:56:22.028Z,584.8461
2023-03-29T10:57:23.179Z,578.6923
2023-03-29T10:58:24.191Z,570.6923
2023-03-29T10:59:25.292Z,565.5385
2023-03-29T11:00:26.397Z,560.0769
2023-03-29T11:01:27.583Z,556.1539
2023-03-29T11:02:28.640Z,549.6923
2023-03-29T11:03:29.752Z,547.5385
2023-03-29T11:04:30.796Z,549.6923
2023-03-29T11:05:31.897Z,550.1539
2023-03-29T11:06:32.997Z,573.4615
2023-03-29T11:07:34.113Z,581.6923
2023-03-29T11:08:35.172Z,561.5385
2023-03-29T11:09:36.288Z,550.4615
2023-03-29T11:10:37.373Z,552.0000
2023-03-29T11:11:38.570Z,551.8461
2023-03-29T11:12:39.569Z,554.3846
2023-03-29T11:13:40.676Z,558.3077
2023-03-29T11:14:41.761Z,568.5385
2023-03-29T11:15:42.905Z,574.1539
2023-03-29T11:16:44.087Z,577.1539
2023-03-29T11:17:45.122Z,575.8461
2023-03-29T11:18:46.147Z,576.6923
2023-03-29T11:19:47.438Z,645.6154
2023-03-29T11:20:48.364Z,713.3846
2023-03-29T11:21:49.575Z,646.8461
2023-03-29T11:22:50.552Z,606.8461
2023-03-29T11:23:51.648Z,597.8461
2023-03-29T11:24:52.722Z,571.7692
2023-03-29T11:25:53.830Z,560.2308
2023-03-29T11:26:54.933Z,561.5385
2023-03-29T11:27:56.023Z,563.6923
2023-03-29T11:28:57.117Z,574.4615
2023-03-29T11:29:58.244Z,586.2308
2023-03-29T11:30:59.348Z,593.6154
2023-03-29T11:32:00.588Z,602.3077
2023-03-29T11:33:01.641Z,610.0769
2023-03-29T11:34:02.692Z,622.5385
2023-03-29T11:35:03.784Z,627.6154
2023-03-29T11:36:05.011Z,633.8461
2023-03-29T11:37:06.020Z,641.0000
2023-03-29T11:38:07.067Z,652.2308
2023-03-29T11:39:08.176Z,656.4615
2023-03-29T11:40:09.273Z,657.6923
2023-03-29T11:41:10.382Z,665.8461
2023-03-29T11:42:11.486Z,668.9231
2023-03-29T11:43:12.587Z,670.0769
2023-03-29T11:44:13.656Z,672.5385
2023-03-29T11:45:14.790Z,695.5385
2023-03-29T11:46:15.955Z,769.6923
2023-03-29T11:47:16.972Z,735.2308
2023-03-29T11:48:18.071Z,704.3846
2023-03-29T11:49:19.170Z,701.3846
2023-03-29T11:50:20.263Z,698.5385
2023-03-29T11:51:21.377Z,699.6923
2023-03-29T11:52:22.509Z,703.5385
2023-03-29T11:53:23.558Z,717.2308
2023-03-29T11:54:24.667Z,850.7692
2023-03-29T11:55:25.757Z,797.0769
2023-03-29T11:56:26.859Z,755.7692
2023-03-29T11:57:28.021Z,740.7692